Time;durP1;ratioP1;P1;durP2;ratioP2;P2;SDS_P1;SDS_P2;PMS_P1;PMS_P2;Temp;Humidity;BMP_temperature;BMP_pressure;BME280_temperature;BME280_humidity;BME280_pressure;Samples;Min_cycle;Max_cycle;Signal;HPM_P1;HPM_P2
2021/11/24 00:01:35;;;;;;;1.60;1.43;;;;;;;1.36;84.69;97076.91;5022203;28;20244;-70
2021/11/24 00:04:02;;;;;;;5.73;3.50;;;;;;;1.32;84.14;97070.25;5022256;28;20244;-69
2021/11/24 00:06:28;;;;;;;2.10;1.90;;;;;;;1.47;84.21;97074.41;5021646;28;20224;-70
2021/11/24 00:08:55;;;;;;;3.83;1.70;;;;;;;1.54;84.17;97073.09;5021955;28;20296;-68
2021/11/24 00:11:21;;;;;;;2.43;2.23;;;;;;;1.34;83.86;97068.38;5021346;28;20239;-68
2021/11/24 00:13:48;;;;;;;3.67;1.60;;;;;;;1.51;83.74;97075.88;5021771;28;20209;-69
2021/11/24 00:16:15;;;;;;;3.40;1.83;;;;;;;1.92;84.23;97076.50;5022388;28;20583;-69
2021/11/24 00:18:42;;;;;;;2.37;1.17;;;;;;;1.74;84.19;97069.16;5022905;28;20194;-70
2021/11/24 00:21:08;;;;;;;1.60;1.50;;;;;;;1.75;83.55;97065.63;5022730;28;20233;-70
2021/11/24 00:23:35;;;;;;;5.07;2.33;;;;;;;1.93;84.29;97071.19;5023373;28;20225;-70
2021/11/24 00:26:02;;;;;;;1.83;1.70;;;;;;;1.78;85.40;97066.22;5024307;28;20213;-69
2021/11/24 00:28:29;;;;;;;6.80;3.00;;;;;;;1.76;86.40;97062.06;5024393;28;20221;-68
2021/11/24 00:30:55;;;;;;;2.77;2.20;;;;;;;1.87;85.63;97070.78;5026187;28;20244;-68
2021/11/24 00:33:23;;;;;;;4.53;2.47;;;;;;;2.26;85.73;97057.66;5025931;28;20202;-71
2021/11/24 00:35:50;;;;;;;1.40;1.23;;;;;;;2.08;85.76;97064.13;5022770;28;20209;-68
2021/11/24 00:38:17;;;;;;;3.03;1.87;;;;;;;2.20;86.22;97047.69;5026816;28;20464;-67
2021/11/24 00:40:43;;;;;;;1.63;1.30;;;;;;;2.05;86.55;97048.72;5027334;28;20221;-68
2021/11/24 00:43:10;;;;;;;2.87;2.13;;;;;;;2.16;87.08;97046.22;5027084;28;20276;-69
2021/11/24 00:45:37;;;;;;;0.87;0.87;;;;;;;2.17;86.64;97050.50;5027524;28;20555;-70
2021/11/24 00:48:03;;;;;;;2.23;1.37;;;;;;;2.26;86.60;97044.66;5028664;28;20273;-66
2021/11/24 00:50:32;;;;;;;2.67;2.10;;;;;;;2.28;87.61;97053.16;5027281;28;20232;-69
2021/11/24 00:52:58;;;;;;;3.00;2.23;;;;;;;2.15;87.99;97062.75;5029553;28;21103;-69
2021/11/24 00:55:25;;;;;;;5.50;3.07;;;;;;;2.24;87.74;97051.72;5029110;28;20210;-71
2021/11/24 00:57:51;;;;;;;1.80;1.50;;;;;;;2.23;88.25;97052.66;5028705;28;20585;-70
2021/11/24 01:00:18;;;;;;;4.03;2.30;;;;;;;2.34;87.81;97050.16;5029403;28;20242;-67
2021/11/24 01:02:45;;;;;;;3.77;2.47;;;;;;;2.34;87.78;97045.75;5027217;28;20242;-66
2021/11/24 01:05:12;;;;;;;1.70;1.60;;;;;;;2.35;88.47;97047.44;5030214;28;20206;-68
2021/11/24 01:07:40;;;;;;;11.73;3.63;;;;;;;2.32;89.37;97042.47;5029953;28;20209;-68
2021/11/24 01:10:08;;;;;;;2.27;1.60;;;;;;;2.45;88.55;97046.66;5030869;28;20238;-67
2021/11/24 01:12:35;;;;;;;2.40;2.20;;;;;;;2.49;87.91;97050.72;5029551;28;20202;-67
2021/11/24 01:15:02;;;;;;;3.97;2.00;;;;;;;2.43;88.14;97055.53;5029396;28;20228;-66
2021/11/24 01:17:28;;;;;;;3.77;2.77;;;;;;;2.36;87.88;97048.28;5030402;28;20781;-67
2021/11/24 01:19:55;;;;;;;3.50;2.80;;;;;;;2.43;87.74;97051.16;5031388;28;20674;-67
2021/11/24 01:22:22;;;;;;;2.37;2.17;;;;;;;2.42;87.60;97049.50;5031027;28;20206;-68
2021/11/24 01:24:50;;;;;;;4.27;2.27;;;;;;;2.63;87.98;97044.53;5031308;28;20232;-68
2021/11/24 01:27:16;;;;;;;3.73;3.10;;;;;;;2.31;88.00;97052.97;5032095;28;20204;-67
2021/11/24 01:29:43;;;;;;;3.67;2.63;;;;;;;1.83;89.15;97053.75;5032583;28;20213;-67
2021/11/24 01:32:11;;;;;;;2.77;2.50;;;;;;;2.17;88.80;97045.31;5031394;28;20366;-70
2021/11/24 01:34:38;;;;;;;2.10;1.90;;;;;;;1.88;89.68;97047.31;5030790;28;20934;-69
2021/11/24 01:37:04;;;;;;;1.77;1.67;;;;;;;1.93;90.20;97047.00;5035244;28;20203;-67
2021/11/24 01:39:31;;;;;;;2.67;1.43;;;;;;;1.60;90.77;97040.66;5035729;28;20485;-67
2021/11/24 01:41:59;;;;;;;1.50;1.40;;;;;;;2.14;90.97;97033.34;5034782;28;20229;-67
2021/11/24 01:44:28;;;;;;;2.40;1.20;;;;;;;2.14;90.19;97022.09;5035452;28;20225;-67
2021/11/24 01:47:01;;;;;;;1.77;1.57;;;;;;;2.24;89.72;97030.91;5034677;28;20210;-68
2021/11/24 01:49:29;;;;;;;4.20;2.43;;;;;;;2.16;89.69;97022.84;5036082;28;20210;-66
2021/11/24 01:51:56;;;;;;;1.73;1.57;;;;;;;2.22;88.02;97025.00;5034389;28;20740;-69
2021/11/24 01:54:24;;;;;;;1.47;1.37;;;;;;;2.45;87.74;97020.66;5034998;28;20194;-69
2021/11/24 01:56:51;;;;;;;2.17;2.03;;;;;;;2.34;87.19;97017.16;5032396;28;20591;-69
2021/11/24 01:59:19;;;;;;;3.50;2.60;;;;;;;2.54;87.17;97012.19;5029538;28;20210;-67
2021/11/24 02:01:46;;;;;;;1.07;0.97;;;;;;;2.22;88.00;97015.44;5035835;28;20233;-70
2021/11/24 02:04:15;;;;;;;2.37;2.17;;;;;;;2.33;87.45;97007.72;5034640;28;20226;-68
2021/11/24 02:06:41;;;;;;;4.57;2.53;;;;;;;2.27;86.99;96999.53;5033728;28;20212;-69
2021/11/24 02:09:09;;;;;;;2.60;2.40;;;;;;;2.22;87.16;97004.22;5034949;28;20231;-67
2021/11/24 02:11:37;;;;;;;2.37;2.13;;;;;;;2.20;87.27;96995.69;5033977;28;20233;-68
2021/11/24 02:14:05;;;;;;;2.00;1.90;;;;;;;2.23;87.00;97000.66;5035275;28;20468;-67
2021/11/24 02:16:33;;;;;;;2.10;2.00;;;;;;;2.34;87.35;96992.94;5032048;28;20206;-68
2021/11/24 02:19:00;;;;;;;1.00;1.00;;;;;;;2.26;87.02;96985.69;5033965;28;20741;-67
2021/11/24 02:21:28;;;;;;;6.77;2.80;;;;;;;2.36;87.28;96988.47;5033500;28;20209;-68
2021/11/24 02:23:54;;;;;;;2.30;2.10;;;;;;;2.25;86.27;96980.59;5033837;28;20233;-68
2021/11/24 02:26:22;;;;;;;0.80;0.80;;;;;;;2.40;86.33;96982.94;5031386;28;20208;-70
2021/11/24 02:28:49;;;;;;;2.07;1.83;;;;;;;1.92;86.66;96980.34;5031868;28;20840;-67
2021/11/24 02:31:19;;;;;;;2.77;2.13;;;;;;;2.32;86.29;96982.66;5031343;28;20229;-67
2021/11/24 02:33:49;;;;;;;6.60;2.73;;;;;;;2.41;85.95;96980.22;5033750;28;20466;-68
2021/11/24 02:36:16;;;;;;;2.53;2.30;;;;;;;2.02;85.92;96970.97;5027731;28;20209;-68
2021/11/24 02:38:44;;;;;;;2.10;1.93;;;;;;;2.22;86.02;96970.41;5031190;28;20734;-70
2021/11/24 02:41:11;;;;;;;2.77;2.30;;;;;;;1.89;86.11;96971.00;5031067;28;20231;-66
2021/11/24 02:43:37;;;;;;;1.17;1.10;;;;;;;1.84;85.93;96962.69;5031178;28;20237;-70
2021/11/24 02:46:04;;;;;;;4.10;2.40;;;;;;;1.87;85.37;96959.06;5029127;28;20215;-67
2021/11/24 02:48:30;;;;;;;2.67;1.70;;;;;;;1.77;85.40;96952.88;5027290;28;20202;-68
2021/11/24 02:50:57;;;;;;;2.03;1.80;;;;;;;1.84;86.14;96954.91;5029573;28;20245;-69
2021/11/24 02:53:25;;;;;;;1.67;1.57;;;;;;;2.04;85.21;96953.53;5030037;28;20341;-67
2021/11/24 02:55:53;;;;;;;3.33;2.60;;;;;;;1.95;84.78;96949.78;5028365;28;20271;-69
2021/11/24 02:58:19;;;;;;;1.73;1.63;;;;;;;1.89;84.45;96959.78;5028630;28;20209;-70
2021/11/24 03:00:47;;;;;;;2.30;1.77;;;;;;;2.02;83.84;96958.00;5028664;28;20240;-69
2021/11/24 03:03:13;;;;;;;2.70;2.30;;;;;;;1.86;84.45;96954.81;5027344;28;20213;-68
2021/11/24 03:05:41;;;;;;;2.93;2.40;;;;;;;1.97;84.86;96957.47;5027341;28;20210;-71
2021/11/24 03:08:08;;;;;;;4.53;1.63;;;;;;;1.81;84.71;96956.91;5023269;28;20205;-70
2021/11/24 03:10:35;;;;;;;2.33;2.03;;;;;;;1.94;84.40;96953.31;5026123;28;20605;-69
2021/11/24 03:13:04;;;;;;;3.77;2.53;;;;;;;2.11;84.09;96952.13;5025934;28;20206;-70
2021/11/24 03:15:30;;;;;;;2.17;2.03;;;;;;;1.85;84.12;96956.56;5027044;28;20202;-70
2021/11/24 03:17:57;;;;;;;11.93;3.57;;;;;;;1.81;83.84;96955.13;5024469;28;20209;-67
2021/11/24 03:20:27;;;;;;;2.30;2.10;;;;;;;1.58;85.17;96944.69;5025148;28;20315;-68
2021/11/24 03:22:54;;;;;;;1.50;1.40;;;;;;;1.49;85.59;96950.50;5024806;28;20323;-69
2021/11/24 03:25:21;;;;;;;1.67;1.57;;;;;;;1.55;84.35;96944.06;5025975;28;20466;-67
2021/11/24 03:27:47;;;;;;;1.40;1.33;;;;;;;1.74;83.81;96942.66;5023753;28;20202;-69
2021/11/24 03:30:18;;;;;;;5.50;1.93;;;;;;;1.84;83.91;96933.28;5023581;28;20232;-67
2021/11/24 03:32:44;;;;;;;4.77;2.23;;;;;;;1.72;83.42;96941.97;5023994;28;20198;-68
2021/11/24 03:35:11;;;;;;;2.30;2.07;;;;;;;1.63;83.23;96932.22;5019795;28;20194;-70
2021/11/24 03:37:38;;;;;;;3.07;1.63;;;;;;;1.69;83.71;96931.75;5021992;28;20573;-68
2021/11/24 03:40:08;;;;;;;15.67;1.53;;;;;;;1.78;84.07;96919.91;5020617;28;20222;-67
2021/11/24 03:42:35;;;;;;;2.07;1.70;;;;;;;1.54;83.50;96927.66;5020741;28;20206;-68
2021/11/24 03:45:02;;;;;;;2.10;1.67;;;;;;;1.55;82.45;96918.91;5021403;28;20507;-70
2021/11/24 03:47:30;;;;;;;4.53;2.03;;;;;;;1.60;82.10;96916.00;5020230;28;20209;-66
2021/11/24 03:49:56;;;;;;;1.53;1.33;;;;;;;1.21;82.61;96919.56;5020168;28;20207;-71
2021/11/24 03:52:23;;;;;;;1.30;1.27;;;;;;;1.25;82.94;96921.03;5020509;28;20209;-69
2021/11/24 03:54:49;;;;;;;3.70;2.20;;;;;;;1.06;84.31;96917.19;5019907;28;20731;-70
2021/11/24 03:57:15;;;;;;;1.20;1.20;;;;;;;1.08;83.35;96907.53;5019444;28;20225;-70
2021/11/24 03:59:42;;;;;;;1.60;1.23;;;;;;;1.09;82.26;96914.38;5019951;28;20198;-69
2021/11/24 04:02:08;;;;;;;1.80;1.33;;;;;;;0.99;82.44;96915.09;5019440;28;20205;-68
2021/11/24 04:04:36;;;;;;;2.57;1.87;;;;;;;1.18;82.99;96907.75;5019120;28;20225;-70
2021/11/24 04:07:03;;;;;;;2.57;2.07;;;;;;;1.14;83.32;96906.28;5018262;28;20213;-70
2021/11/24 04:09:29;;;;;;;2.87;1.27;;;;;;;0.80;83.29;96912.06;5018835;28;21022;-70
2021/11/24 04:11:56;;;;;;;2.33;1.47;;;;;;;0.69;82.05;96914.56;5018743;28;20237;-69
2021/11/24 04:14:22;;;;;;;4.73;2.30;;;;;;;0.86;81.36;96917.69;5018617;28;20910;-70
2021/11/24 04:16:49;;;;;;;2.53;1.37;;;;;;;0.70;81.29;96911.88;5017169;28;20208;-71
2021/11/24 04:19:15;;;;;;;1.43;1.33;;;;;;;0.70;81.65;96908.44;5017440;28;20208;-69
2021/11/24 04:21:43;;;;;;;3.17;2.17;;;;;;;0.96;82.69;96916.16;5018208;28;20654;-71
2021/11/24 04:24:10;;;;;;;0.77;0.77;;;;;;;0.64;82.05;96907.06;5017664;28;20713;-67
2021/11/24 04:26:36;;;;;;;3.80;2.10;;;;;;;0.64;81.26;96907.06;5016860;28;20201;-71
2021/11/24 04:29:03;;;;;;;5.17;2.60;;;;;;;0.61;81.31;96907.28;5017362;28;20457;-70
2021/11/24 04:31:29;;;;;;;3.83;2.27;;;;;;;0.34;81.76;96917.78;5017744;28;20570;-68
2021/11/24 04:33:55;;;;;;;1.43;1.33;;;;;;;0.49;81.06;96917.63;5017246;28;20710;-68
2021/11/24 04:36:22;;;;;;;2.70;1.50;;;;;;;0.45;81.07;96905.81;5013004;28;20198;-71
2021/11/24 04:38:50;;;;;;;1.23;1.13;;;;;;;0.76;81.08;96911.47;5017434;28;20559;-69
2021/11/24 04:41:16;;;;;;;2.63;1.80;;;;;;;0.48;81.53;96908.19;5017110;28;20323;-67
2021/11/24 04:43:45;;;;;;;2.40;1.97;;;;;;;0.33;81.13;96904.00;5016980;28;20202;-71
2021/11/24 04:46:13;;;;;;;1.60;1.50;;;;;;;0.29;81.49;96912.06;5016376;28;20301;-70
2021/11/24 04:48:39;;;;;;;1.00;0.93;;;;;;;0.39;81.60;96905.38;5016618;28;20198;-70
2021/11/24 04:51:06;;;;;;;1.73;1.63;;;;;;;0.36;81.21;96911.59;5016622;28;20608;-70
2021/11/24 04:53:33;;;;;;;2.43;1.53;;;;;;;0.18;80.91;96910.19;5016649;28;20532;-70
2021/11/24 04:56:01;;;;;;;4.10;2.73;;;;;;;0.45;80.45;96900.63;5015546;28;20492;-69
2021/11/24 04:58:28;;;;;;;0.60;0.60;;;;;;;0.15;81.50;96901.75;5015591;28;20208;-70
2021/11/24 05:00:55;;;;;;;6.53;3.17;;;;;;;0.29;80.57;96896.53;5016142;28;20234;-70
2021/11/24 05:03:21;;;;;;;1.07;1.03;;;;;;;0.03;81.29;96903.38;5015810;28;20600;-71
2021/11/24 05:05:48;;;;;;;2.50;1.83;;;;;;;0.05;82.20;96908.44;5015178;28;20700;-69
2021/11/24 05:08:15;;;;;;;2.83;1.37;;;;;;;0.01;82.90;96905.25;5015765;28;20201;-70
2021/11/24 05:10:41;;;;;;;1.97;1.53;;;;;;;0.12;80.31;96909.75;5015531;28;20226;-69
2021/11/24 05:13:09;;;;;;;1.93;1.73;;;;;;;0.37;80.01;96907.22;5016177;28;20210;-71
2021/11/24 05:15:38;;;;;;;1.80;1.53;;;;;;;0.21;79.82;96903.97;5015839;28;20201;-71
2021/11/24 05:18:06;;;;;;;2.57;1.60;;;;;;;-0.02;81.20;96892.47;5015378;28;20208;-70
2021/11/24 05:20:35;;;;;;;1.50;1.40;;;;;;;0.32;80.61;96899.75;5015271;28;20302;-71
2021/11/24 05:23:04;;;;;;;2.33;1.77;;;;;;;0.44;82.20;96896.34;5015687;28;20209;-71
2021/11/24 05:25:32;;;;;;;2.13;1.43;;;;;;;0.48;82.54;96897.00;5014906;28;20601;-70
2021/11/24 05:27:59;;;;;;;1.47;1.37;;;;;;;0.42;82.79;96898.22;5015918;28;20229;-70
2021/11/24 05:30:28;;;;;;;1.93;1.80;;;;;;;0.69;82.41;96894.63;5015930;28;20218;-67
2021/11/24 05:32:55;;;;;;;1.70;1.57;;;;;;;0.57;82.93;96902.38;5015197;28;20205;-68
2021/11/24 05:35:22;;;;;;;1.10;1.00;;;;;;;0.58;84.02;96898.88;5013033;28;20197;-71
2021/11/24 05:37:49;;;;;;;1.43;1.33;;;;;;;0.81;83.47;96893.00;5015944;28;20650;-70
2021/11/24 05:40:16;;;;;;;3.70;2.33;;;;;;;0.74;83.72;96896.94;5015030;28;20221;-71
2021/11/24 05:42:49;;;;;;;2.30;2.07;;;;;;;0.59;83.51;96897.94;5016165;28;20205;-68
2021/11/24 05:45:26;;;;;;;15.67;1.97;;;;;;;0.59;83.51;96890.16;5015797;28;20224;-71
2021/11/24 05:47:57;;;;;;;1.37;1.27;;;;;;;0.76;84.57;96888.13;5014404;28;20232;-69
2021/11/24 05:50:25;;;;;;;1.73;1.63;;;;;;;0.65;84.78;96888.00;5015499;28;20924;-70
2021/11/24 05:52:51;;;;;;;2.63;1.77;;;;;;;0.73;85.01;96879.72;5016166;28;20224;-67
2021/11/24 05:55:18;;;;;;;1.63;1.53;;;;;;;0.69;85.46;96883.44;5015333;28;20205;-67
2021/11/24 05:57:44;;;;;;;3.13;2.77;;;;;;;0.68;86.36;96877.41;5015285;28;20198;-71
2021/11/24 06:00:12;;;;;;;0.90;0.90;;;;;;;0.97;86.25;96865.91;5014960;28;20497;-71
2021/11/24 06:02:38;;;;;;;5.50;2.23;;;;;;;0.77;85.99;96868.19;5016229;28;20205;-67
2021/11/24 06:05:08;;;;;;;3.47;2.13;;;;;;;1.01;86.53;96871.75;5014719;28;20229;-71
2021/11/24 06:07:35;;;;;;;1.60;1.50;;;;;;;0.86;86.21;96864.97;5015313;28;20205;-70
2021/11/24 06:10:01;;;;;;;1.33;0.83;;;;;;;0.63;85.19;96878.66;5015219;28;20257;-69
2021/11/24 06:12:28;;;;;;;4.87;2.80;;;;;;;0.81;84.37;96867.06;5015706;28;20671;-70
2021/11/24 06:14:54;;;;;;;1.87;1.47;;;;;;;0.57;85.60;96873.88;5016101;28;20202;-71
2021/11/24 06:17:21;;;;;;;4.30;2.03;;;;;;;0.69;86.91;96876.50;5015321;28;20214;-67
2021/11/24 06:19:47;;;;;;;3.73;2.93;;;;;;;0.74;88.10;96878.78;5015885;28;20202;-68
2021/11/24 06:22:15;;;;;;;5.87;3.40;;;;;;;1.09;88.74;96878.03;5019585;28;20201;-71
2021/11/24 06:24:41;;;;;;;2.63;2.33;;;;;;;0.77;89.34;96881.16;5019940;28;20225;-71
2021/11/24 06:27:08;;;;;;;4.33;3.60;;;;;;;0.49;91.26;96878.75;5019684;28;20206;-69
2021/11/24 06:29:35;;;;;;;1.40;0.97;;;;;;;0.56;92.43;96887.78;5018883;28;20236;-67
2021/11/24 06:32:01;;;;;;;2.90;2.60;;;;;;;0.55;93.24;96887.88;5020399;28;20607;-72
2021/11/24 06:34:28;;;;;;;3.43;2.47;;;;;;;0.54;94.10;96884.44;5016829;28;20198;-72
2021/11/24 06:36:55;;;;;;;0.80;0.80;;;;;;;0.64;92.90;96881.16;5019542;28;20214;-70
2021/11/24 06:39:24;;;;;;;6.13;2.37;;;;;;;0.96;93.98;96887.59;5019853;28;20205;-72
2021/11/24 06:41:51;;;;;;;10.10;3.13;;;;;;;0.67;93.99;96885.31;5021123;28;20234;-68
2021/11/24 06:44:18;;;;;;;2.50;2.30;;;;;;;0.67;94.80;96880.13;5020515;28;21223;-72
2021/11/24 06:46:44;;;;;;;7.13;2.17;;;;;;;0.70;94.40;96882.50;5019648;28;20206;-69
2021/11/24 06:49:11;;;;;;;3.80;2.63;;;;;;;0.44;95.30;96880.81;5020517;28;20210;-71
2021/11/24 06:51:37;;;;;;;4.60;1.30;;;;;;;0.79;94.49;96882.72;5019528;28;20761;-72
2021/11/24 06:54:04;;;;;;;2.03;1.77;;;;;;;0.61;95.08;96881.38;5020832;28;20929;-70
2021/11/24 06:56:32;;;;;;;11.43;3.47;;;;;;;0.80;94.86;96884.41;5020642;28;20202;-68
2021/11/24 06:58:58;;;;;;;1.17;1.17;;;;;;;0.58;94.75;96879.91;5022440;28;20585;-70
2021/11/24 07:01:24;;;;;;;4.90;2.67;;;;;;;0.91;93.59;96881.88;5020646;28;20234;-73
2021/11/24 07:03:51;;;;;;;2.43;1.80;;;;;;;0.99;93.16;96878.78;5020904;28;20704;-70
2021/11/24 07:06:17;;;;;;;3.80;2.20;;;;;;;1.13;93.09;96883.88;5020180;28;20593;-72
2021/11/24 07:08:44;;;;;;;3.60;2.70;;;;;;;1.03;92.91;96877.63;5020557;28;20205;-68
2021/11/24 07:11:10;;;;;;;7.47;3.40;;;;;;;1.00;93.67;96883.88;5020800;28;20218;-69
2021/11/24 07:13:38;;;;;;;2.40;2.20;;;;;;;1.30;93.31;96869.63;5021439;28;20202;-71
2021/11/24 07:16:05;;;;;;;3.20;2.00;;;;;;;1.11;93.44;96875.34;5020927;28;20236;-70
2021/11/24 07:18:31;;;;;;;2.83;1.63;;;;;;;1.41;91.97;96869.72;5021199;28;20202;-72
2021/11/24 07:20:57;;;;;;;3.07;2.23;;;;;;;1.51;91.63;96875.09;5020560;28;20233;-71
2021/11/24 07:23:24;;;;;;;3.90;2.60;;;;;;;1.34;92.56;96870.25;5020653;28;20209;-72
2021/11/24 07:25:51;;;;;;;8.10;3.53;;;;;;;1.59;90.96;96859.78;5020800;28;20226;-72
2021/11/24 07:28:17;;;;;;;3.00;2.73;;;;;;;1.50;91.25;96871.69;5022111;28;20233;-69
2021/11/24 07:30:45;;;;;;;2.93;2.73;;;;;;;1.80;92.18;96866.91;5023334;28;20227;-71
2021/11/24 07:33:11;;;;;;;3.47;1.70;;;;;;;1.57;91.33;96870.28;5021735;28;20224;-68
2021/11/24 07:35:38;;;;;;;5.30;2.50;;;;;;;1.53;91.97;96868.84;5020085;28;20194;-68
2021/11/24 07:38:04;;;;;;;23.30;2.20;;;;;;;1.72;91.39;96864.03;5022611;28;20221;-68
2021/11/24 07:40:31;;;;;;;2.57;2.13;;;;;;;1.78;91.89;96868.78;5022749;28;20245;-71
2021/11/24 07:42:58;;;;;;;6.07;3.47;;;;;;;1.71;91.35;96877.94;5023411;28;20202;-72
2021/11/24 07:45:24;;;;;;;7.90;3.03;;;;;;;1.64;92.11;96881.09;5022499;28;20225;-70
2021/11/24 07:47:52;;;;;;;4.47;2.83;;;;;;;1.71;92.97;96872.75;5023770;28;20224;-69
2021/11/24 07:50:19;;;;;;;7.47;3.50;;;;;;;1.76;92.33;96870.66;5024707;28;20233;-69
2021/11/24 07:52:45;;;;;;;3.03;2.50;;;;;;;1.56;92.63;96873.00;5024726;28;20206;-68
2021/11/24 07:55:12;;;;;;;9.40;3.70;;;;;;;1.78;92.05;96873.16;5023208;28;20206;-72
2021/11/24 07:57:38;;;;;;;3.77;2.93;;;;;;;1.68;93.03;96869.53;5023257;28;21069;-67
2021/11/24 08:00:06;;;;;;;2.90;2.33;;;;;;;2.10;92.14;96860.34;5023756;28;20233;-69
2021/11/24 08:02:33;;;;;;;6.53;3.43;;;;;;;1.94;92.20;96870.16;5024819;28;20209;-70
2021/11/24 08:05:03;;;;;;;4.00;2.37;;;;;;;2.21;91.44;96855.19;5024632;28;20228;-70
2021/11/24 08:07:31;;;;;;;6.50;4.73;;;;;;;1.76;92.02;96855.06;5024628;28;20202;-71
2021/11/24 08:09:58;;;;;;;9.63;3.27;;;;;;;2.10;91.93;96859.50;5021917;28;21139;-70
2021/11/24 08:12:24;;;;;;;3.83;2.47;;;;;;;1.78;92.04;96853.19;5018484;28;20202;-69
2021/11/24 08:14:52;;;;;;;7.47;3.00;;;;;;;1.95;92.28;96851.03;5017785;28;20213;-73
2021/11/24 08:17:19;;;;;;;5.43;3.47;;;;;;;1.70;92.74;96855.50;5015988;28;20687;-71
2021/11/24 08:19:45;;;;;;;7.10;3.27;;;;;;;1.78;92.61;96853.19;5018467;28;20205;-74
2021/11/24 08:22:13;;;;;;;3.40;2.27;;;;;;;2.09;93.02;96844.88;5017997;28;20693;-72
2021/11/24 08:24:39;;;;;;;8.33;5.00;;;;;;;1.64;93.21;96840.34;5017758;28;20225;-76
2021/11/24 08:27:06;;;;;;;26.97;4.20;;;;;;;1.78;93.47;96847.97;5017226;28;20222;-74
2021/11/24 08:29:32;;;;;;;9.77;4.70;;;;;;;1.58;94.62;96843.41;5018241;28;20690;-69
2021/11/24 08:31:59;;;;;;;9.83;1.80;;;;;;;1.64;94.75;96844.72;5018763;28;20575;-71
2021/11/24 08:34:25;;;;;;;4.80;3.77;;;;;;;1.98;94.00;96832.63;5012213;28;20202;-72
2021/11/24 08:36:52;;;;;;;3.67;2.63;;;;;;;2.01;93.22;96827.22;5015106;28;20236;-69
2021/11/24 08:39:21;;;;;;;4.80;2.97;;;;;;;2.39;92.36;96821.81;5017412;28;20518;-74
2021/11/24 08:41:48;;;;;;;2.90;2.07;;;;;;;2.02;92.44;96820.25;5017048;28;20229;-69
2021/11/24 08:44:15;;;;;;;4.70;2.53;;;;;;;1.80;93.41;96824.53;5015464;28;20206;-73
2021/11/24 08:46:41;;;;;;;12.87;4.00;;;;;;;1.74;94.27;96812.78;5016458;28;20225;-70
2021/11/24 08:49:08;;;;;;;7.20;3.90;;;;;;;1.77;95.01;96815.19;5016880;28;20216;-68
2021/11/24 08:51:37;;;;;;;24.73;5.33;;;;;;;2.05;94.04;96807.00;5016657;28;20610;-70
2021/11/24 08:54:04;;;;;;;7.83;5.17;;;;;;;1.79;94.35;96802.88;5016756;28;20296;-71
2021/11/24 08:56:34;;;;;;;8.00;4.13;;;;;;;2.11;95.40;96806.56;5015936;28;20613;-70
2021/11/24 08:59:03;;;;;;;11.20;2.97;;;;;;;1.89;94.43;96799.50;5014166;28;20660;-69
2021/11/24 09:01:30;;;;;;;6.27;3.90;;;;;;;2.04;93.83;96803.59;5015211;28;20324;-72
2021/11/24 09:03:58;;;;;;;4.40;2.70;;;;;;;2.11;94.28;96798.78;5015703;28;20295;-71
2021/11/24 09:06:24;;;;;;;5.23;2.23;;;;;;;2.16;93.51;96807.06;5014751;28;20218;-72
2021/11/24 09:08:51;;;;;;;16.43;4.60;;;;;;;2.09;94.47;96800.69;5015273;28;20214;-69
2021/11/24 09:11:18;;;;;;;8.20;3.57;;;;;;;2.43;93.05;96795.44;5015776;28;20230;-73
2021/11/24 09:13:45;;;;;;;9.83;5.17;;;;;;;2.60;92.40;96790.66;5016097;28;20204;-72
2021/11/24 09:16:12;;;;;;;17.63;4.37;;;;;;;2.16;93.26;96796.69;5014981;28;20211;-74
2021/11/24 09:18:39;;;;;;;9.37;5.20;;;;;;;2.29;94.45;96794.81;5016812;28;20210;-73
2021/11/24 09:21:06;;;;;;;3.80;2.63;;;;;;;2.43;93.96;96785.03;5015717;28;20229;-69
2021/11/24 09:23:33;;;;;;;5.47;3.07;;;;;;;2.28;94.64;96774.97;5015937;28;20213;-70
2021/11/24 09:26:04;;;;;;;39.70;5.80;;;;;;;2.51;93.43;96774.91;5014767;28;20225;-71
2021/11/24 09:28:33;;;;;;;6.03;3.30;;;;;;;2.28;94.13;96773.22;5015091;28;20605;-69
2021/11/24 09:31:01;;;;;;;14.97;4.50;;;;;;;2.40;94.78;96765.28;5014690;28;20230;-71
2021/11/24 09:33:28;;;;;;;18.60;5.63;;;;;;;2.37;93.98;96766.47;5014671;28;20198;-68
2021/11/24 09:35:54;;;;;;;20.90;3.23;;;;;;;2.15;94.51;96763.81;5011077;28;20789;-69
2021/11/24 09:38:21;;;;;;;8.13;2.73;;;;;;;2.27;94.99;96762.94;5014851;28;20202;-68
2021/11/24 09:40:49;;;;;;;7.13;3.90;;;;;;;2.60;94.27;96771.63;5014595;28;20221;-74
2021/11/24 09:43:17;;;;;;;10.60;6.33;;;;;;;2.48;93.65;96773.38;5014838;28;20205;-75
2021/11/24 09:45:46;;;;;;;7.63;3.20;;;;;;;2.45;93.75;96768.38;5014664;28;20310;-72
2021/11/24 09:48:17;;;;;;;4.60;2.57;;;;;;;2.35;95.62;96770.97;5014837;28;20214;-70
2021/11/24 09:50:46;;;;;;;7.17;5.13;;;;;;;2.19;95.47;96775.63;5015103;28;20221;-71
2021/11/24 09:53:13;;;;;;;5.33;2.73;;;;;;;2.16;94.89;96760.28;5016153;28;21161;-74
2021/11/24 09:55:42;;;;;;;14.00;3.30;;;;;;;2.39;94.88;96755.00;5016853;28;20690;-68
2021/11/24 09:58:10;;;;;;;5.87;3.67;;;;;;;2.14;94.51;96751.75;5020286;28;20260;-70
2021/11/24 10:00:39;;;;;;;7.27;3.23;;;;;;;2.39;94.85;96756.78;5018961;28;20223;-72
2021/11/24 10:03:06;;;;;;;7.73;2.00;;;;;;;2.40;93.97;96749.69;5020498;28;20210;-70
2021/11/24 10:05:36;;;;;;;20.20;3.57;;;;;;;2.25;95.07;96744.00;5018791;28;20205;-74
2021/11/24 10:08:03;;;;;;;11.20;5.67;;;;;;;2.10;95.04;96740.78;5020095;28;20316;-69
2021/11/24 10:10:29;;;;;;;6.10;3.17;;;;;;;2.17;94.10;96741.16;5017599;28;20233;-70
2021/11/24 10:12:57;;;;;;;4.97;3.90;;;;;;;2.41;93.74;96733.16;5019033;28;20213;-69
2021/11/24 10:15:43;;;;;;;14.87;3.47;;;;;;;2.66;93.21;96725.16;5012891;28;20202;-69
2021/11/24 10:18:17;;;;;;;9.00;3.47;;;;;;;2.53;93.57;96724.44;5019273;28;20217;-69
2021/11/24 10:20:47;;;;;;;8.43;3.30;;;;;;;1.97;94.53;96719.25;5033763;28;20218;-70
2021/11/24 10:23:31;;;;;;;22.97;5.40;;;;;;;2.45;94.05;96712.94;5034725;28;20202;-70
2021/11/24 10:26:17;;;;;;;6.63;3.87;;;;;;;2.65;93.26;96710.47;5032194;28;20221;-67
2021/11/24 10:28:52;;;;;;;0.70;0.70;;;;;;;2.21;94.68;96712.19;5031034;28;20206;-68
2021/11/24 10:31:27;;;;;;;7.13;3.67;;;;;;;2.34;94.15;96709.50;5030891;28;20233;-66
2021/11/24 10:33:53;;;;;;;11.17;6.10;;;;;;;2.04;94.46;96709.22;5033919;28;20241;-66
2021/11/24 10:36:21;;;;;;;6.33;3.63;;;;;;;2.27;94.86;96709.16;5029933;28;20663;-69
2021/11/24 10:38:51;;;;;;;3.93;2.50;;;;;;;2.47;93.11;96696.28;5034140;28;20199;-66
2021/11/24 10:41:27;;;;;;;5.83;2.70;;;;;;;2.75;92.79;96698.44;5034226;28;20710;-67
2021/11/24 10:43:54;;;;;;;8.13;3.47;;;;;;;2.47;92.95;96701.47;5035489;28;20273;-68
2021/11/24 10:46:24;;;;;;;8.03;3.17;;;;;;;2.76;93.18;96684.47;5033186;28;20222;-68
2021/11/24 10:49:00;;;;;;;8.63;4.27;;;;;;;2.92;92.58;96689.31;5035732;28;21158;-66
2021/11/24 10:51:30;;;;;;;13.23;4.33;;;;;;;2.83;92.26;96685.63;5035151;28;20444;-65
2021/11/24 10:54:08;;;;;;;6.20;3.37;;;;;;;3.10;91.86;96675.66;5035455;28;20211;-69
2021/11/24 10:56:36;;;;;;;4.43;3.20;;;;;;;2.83;92.37;96674.41;5034516;28;20277;-67
2021/11/24 10:59:15;;;;;;;11.07;4.60;;;;;;;2.93;91.54;96676.16;5035169;28;20233;-66
2021/11/24 11:01:42;;;;;;;12.97;3.73;;;;;;;2.36;93.14;96673.81;5034655;28;20238;-67
2021/11/24 11:04:09;;;;;;;5.43;4.93;;;;;;;2.44;92.95;96673.13;5034151;28;20206;-68
2021/11/24 11:06:38;;;;;;;9.13;4.43;;;;;;;2.65;93.42;96668.84;5033620;28;20222;-67
2021/11/24 11:09:05;;;;;;;5.77;4.20;;;;;;;2.03;94.29;96660.78;5035581;28;20236;-67
2021/11/24 11:11:34;;;;;;;11.77;3.77;;;;;;;2.45;94.86;96663.53;5034560;28;20245;-68
2021/11/24 11:14:16;;;;;;;10.30;4.70;;;;;;;2.73;93.45;96652.66;5034449;28;20220;-66
2021/11/24 11:16:50;;;;;;;9.97;4.47;;;;;;;2.70;93.18;96650.28;5034834;28;20264;-65
2021/11/24 11:19:39;;;;;;;14.77;5.63;;;;;;;2.88;92.65;96643.63;5036102;28;20205;-67
2021/11/24 11:22:07;;;;;;;7.83;4.43;;;;;;;2.51;94.08;96639.66;5035507;28;20232;-66
2021/11/24 11:24:34;;;;;;;18.03;3.87;;;;;;;2.49;93.07;96639.75;5036190;28;20236;-67
2021/11/24 11:27:01;;;;;;;17.27;4.37;;;;;;;2.28;93.65;96637.16;5035965;28;20621;-70
2021/11/24 11:29:28;;;;;;;7.20;2.73;;;;;;;2.71;93.17;96628.53;5034443;28;20233;-69
2021/11/24 11:31:56;;;;;;;14.87;3.33;;;;;;;2.96;91.99;96634.28;5037465;28;20240;-66
2021/11/24 11:34:23;;;;;;;5.97;3.70;;;;;;;2.64;92.24;96630.78;5034408;28;20201;-67
2021/11/24 11:36:49;;;;;;;2.07;1.60;;;;;;;2.29;92.70;96624.06;5037166;28;20293;-69
2021/11/24 11:39:17;;;;;;;13.60;4.13;;;;;;;2.41;93.80;96618.72;5040024;28;20205;-68
2021/11/24 11:41:44;;;;;;;2.60;2.33;;;;;;;2.51;92.74;96624.88;5037877;28;20284;-67
2021/11/24 11:44:14;;;;;;;8.47;3.23;;;;;;;2.72;93.52;96617.16;5033059;28;20212;-69